sensor_id;sensor_type;location;lat;lon;timestamp;pressure;altitude;pressure_sealevel;temperature;humidity
39843;BME280;25514;46.764;15.406;2022-08-04T00:01:03;97224.13;;;20.63;71.26
39843;BME280;25514;46.764;15.406;2022-08-04T00:03:42;97221.63;;;20.45;72.26
39843;BME280;25514;46.764;15.406;2022-08-04T00:09:09;97209.63;;;20.33;73.41
39843;BME280;25514;46.764;15.406;2022-08-04T00:11:39;97224.28;;;20.34;73.80
39843;BME280;25514;46.764;15.406;2022-08-04T00:14:18;97219.00;;;20.36;72.62
39843;BME280;25514;46.764;15.406;2022-08-04T00:16:46;97214.97;;;20.37;71.70
39843;BME280;25514;46.764;15.406;2022-08-04T00:19:31;97215.72;;;20.37;72.26
39843;BME280;25514;46.764;15.406;2022-08-04T00:22:02;97226.47;;;20.29;73.36
39843;BME280;25514;46.764;15.406;2022-08-04T00:24:31;97216.75;;;20.19;73.66
39843;BME280;25514;46.764;15.406;2022-08-04T00:26:58;97221.44;;;20.13;74.35
39843;BME280;25514;46.764;15.406;2022-08-04T00:29:26;97223.97;;;20.11;74.03
39843;BME280;25514;46.764;15.406;2022-08-04T00:34:28;97223.31;;;20.01;76.25
39843;BME280;25514;46.764;15.406;2022-08-04T00:36:55;97219.22;;;19.97;76.76
39843;BME280;25514;46.764;15.406;2022-08-04T00:39:21;97223.16;;;19.90;76.98
39843;BME280;25514;46.764;15.406;2022-08-04T00:50:07;97218.22;;;19.79;77.29
39843;BME280;25514;46.764;15.406;2022-08-04T01:01:28;97227.19;;;19.44;79.21
39843;BME280;25514;46.764;15.406;2022-08-04T01:09:29;97223.00;;;19.49;77.50
39843;BME280;25514;46.764;15.406;2022-08-04T01:14:56;97216.69;;;19.48;79.06
39843;BME280;25514;46.764;15.406;2022-08-04T01:20:02;97220.69;;;19.47;79.01
39843;BME280;25514;46.764;15.406;2022-08-04T01:28:14;97214.59;;;19.43;78.06
39843;BME280;25514;46.764;15.406;2022-08-04T01:30:55;97214.59;;;19.43;77.04
39843;BME280;25514;46.764;15.406;2022-08-04T01:33:21;97195.47;;;19.45;76.56
39843;BME280;25514;46.764;15.406;2022-08-04T01:35:54;97209.06;;;19.43;76.60
39843;BME280;25514;46.764;15.406;2022-08-04T01:38:33;97211.91;;;19.34;76.02
39843;BME280;25514;46.764;15.406;2022-08-04T01:41:03;97209.72;;;19.38;75.79
39843;BME280;25514;46.764;15.406;2022-08-04T01:43:30;97194.78;;;19.50;75.01
39843;BME280;25514;46.764;15.406;2022-08-04T01:45:58;97198.03;;;19.49;74.80
39843;BME280;25514;46.764;15.406;2022-08-04T01:48:25;97190.47;;;19.49;74.20
39843;BME280;25514;46.764;15.406;2022-08-04T01:50:52;97196.31;;;19.51;73.47
39843;BME280;25514;46.764;15.406;2022-08-04T01:53:19;97200.59;;;19.52;73.50
39843;BME280;25514;46.764;15.406;2022-08-04T01:55:47;97190.47;;;19.49;73.23
39843;BME280;25514;46.764;15.406;2022-08-04T01:58:17;97191.00;;;19.48;73.29
39843;BME280;25514;46.764;15.406;2022-08-04T02:00:49;97193.25;;;19.49;73.63
39843;BME280;25514;46.764;15.406;2022-08-04T02:03:19;97193.94;;;19.44;73.60
39843;BME280;25514;46.764;15.406;2022-08-04T02:05:47;97189.34;;;19.41;74.64
39843;BME280;25514;46.764;15.406;2022-08-04T02:08:20;97183.25;;;19.37;74.60
39843;BME280;25514;46.764;15.406;2022-08-04T02:11:13;97195.47;;;19.30;74.55
39843;BME280;25514;46.764;15.406;2022-08-04T02:16:48;97184.59;;;19.27;74.66
39843;BME280;25514;46.764;15.406;2022-08-04T02:19:41;97184.00;;;19.22;75.38
39843;BME280;25514;46.764;15.406;2022-08-04T02:22:16;97187.72;;;19.19;75.16
39843;BME280;25514;46.764;15.406;2022-08-04T02:24:45;97186.22;;;19.18;75.44
39843;BME280;25514;46.764;15.406;2022-08-04T02:27:15;97172.53;;;19.15;75.57
39843;BME280;25514;46.764;15.406;2022-08-04T02:29:55;97175.88;;;19.04;75.76
39843;BME280;25514;46.764;15.406;2022-08-04T02:32:29;97182.38;;;19.01;76.25
39843;BME280;25514;46.764;15.406;2022-08-04T02:35:20;97172.84;;;19.02;75.79
39843;BME280;25514;46.764;15.406;2022-08-04T02:38:00;97176.28;;;18.97;76.19
39843;BME280;25514;46.764;15.406;2022-08-04T02:40:29;97170.94;;;18.93;76.94
39843;BME280;25514;46.764;15.406;2022-08-04T02:42:56;97166.34;;;18.90;77.42
39843;BME280;25514;46.764;15.406;2022-08-04T02:45:24;97165.56;;;18.90;77.96
39843;BME280;25514;46.764;15.406;2022-08-04T02:47:52;97166.03;;;18.88;77.88
39843;BME280;25514;46.764;15.406;2022-08-04T02:50:20;97170.81;;;18.88;77.15
39843;BME280;25514;46.764;15.406;2022-08-04T02:52:47;97170.06;;;18.87;77.07
39843;BME280;25514;46.764;15.406;2022-08-04T02:55:16;97166.81;;;18.89;77.06
39843;BME280;25514;46.764;15.406;2022-08-04T02:57:42;97171.28;;;18.86;77.64
39843;BME280;25514;46.764;15.406;2022-08-04T03:00:11;97169.75;;;18.85;77.58
39843;BME280;25514;46.764;15.406;2022-08-04T03:05:44;97162.94;;;18.71;78.67
39843;BME280;25514;46.764;15.406;2022-08-04T03:16:59;97153.56;;;18.54;78.71
39843;BME280;25514;46.764;15.406;2022-08-04T03:20:32;97155.25;;;18.51;78.40
39843;BME280;25514;46.764;15.406;2022-08-04T03:23:06;97160.03;;;18.50;78.67
39843;BME280;25514;46.764;15.406;2022-08-04T03:51:26;97154.75;;;18.13;79.88
39843;BME280;25514;46.764;15.406;2022-08-04T04:05:40;97159.56;;;17.79;83.37
39843;BME280;25514;46.764;15.406;2022-08-04T04:19:38;97159.66;;;17.94;84.91
39843;BME280;25514;46.764;15.406;2022-08-04T04:30:57;97164.00;;;18.10;82.84
39843;BME280;25514;46.764;15.406;2022-08-04T04:34:04;97169.59;;;18.01;82.18
39843;BME280;25514;46.764;15.406;2022-08-04T04:36:43;97172.66;;;18.03;81.81
39843;BME280;25514;46.764;15.406;2022-08-04T04:39:23;97176.38;;;18.00;81.37
39843;BME280;25514;46.764;15.406;2022-08-04T04:42:21;97173.25;;;18.07;81.64
39843;BME280;25514;46.764;15.406;2022-08-04T04:47:48;97178.59;;;18.11;83.28
39843;BME280;25514;46.764;15.406;2022-08-04T04:50:42;97179.78;;;18.19;83.36
39843;BME280;25514;46.764;15.406;2022-08-04T04:53:28;97179.13;;;18.24;83.09
39843;BME280;25514;46.764;15.406;2022-08-04T04:58:50;97186.06;;;18.20;83.61
39843;BME280;25514;46.764;15.406;2022-08-04T05:01:34;97188.22;;;18.25;84.06
39843;BME280;25514;46.764;15.406;2022-08-04T05:07:35;97187.66;;;18.36;84.14
39843;BME280;25514;46.764;15.406;2022-08-04T05:13:09;97187.91;;;18.47;84.36
39843;BME280;25514;46.764;15.406;2022-08-04T05:15:42;97191.69;;;18.49;84.85
39843;BME280;25514;46.764;15.406;2022-08-04T05:18:11;97186.47;;;18.52;85.26
39843;BME280;25514;46.764;15.406;2022-08-04T05:20:45;97189.81;;;18.56;85.33
39843;BME280;25514;46.764;15.406;2022-08-04T05:23:16;97186.09;;;18.59;84.70
39843;BME280;25514;46.764;15.406;2022-08-04T05:25:50;97187.91;;;18.62;83.89
39843;BME280;25514;46.764;15.406;2022-08-04T05:28:21;97188.50;;;18.66;83.29
39843;BME280;25514;46.764;15.406;2022-08-04T05:30:57;97181.28;;;18.68;83.96
39843;BME280;25514;46.764;15.406;2022-08-04T05:33:32;97191.88;;;18.70;83.96
39843;BME280;25514;46.764;15.406;2022-08-04T05:36:02;97192.16;;;18.72;84.35
39843;BME280;25514;46.764;15.406;2022-08-04T05:38:34;97188.91;;;18.74;83.76
39843;BME280;25514;46.764;15.406;2022-08-04T05:41:02;97186.41;;;18.76;83.43
39843;BME280;25514;46.764;15.406;2022-08-04T05:43:29;97179.47;;;18.80;82.26
39843;BME280;25514;46.764;15.406;2022-08-04T05:45:55;97189.13;;;18.85;81.84
39843;BME280;25514;46.764;15.406;2022-08-04T05:48:23;97182.47;;;18.92;82.59
39843;BME280;25514;46.764;15.406;2022-08-04T05:50:50;97186.09;;;18.98;82.39
39843;BME280;25514;46.764;15.406;2022-08-04T05:53:16;97184.84;;;18.99;81.73
39843;BME280;25514;46.764;15.406;2022-08-04T05:55:43;97186.69;;;19.02;81.39
39843;BME280;25514;46.764;15.406;2022-08-04T05:58:09;97190.03;;;19.06;81.16
39843;BME280;25514;46.764;15.406;2022-08-04T06:00:36;97187.06;;;19.10;80.58
39843;BME280;25514;46.764;15.406;2022-08-04T06:03:03;97186.50;;;19.20;79.48
39843;BME280;25514;46.764;15.406;2022-08-04T06:05:30;97192.91;;;19.27;78.83
39843;BME280;25514;46.764;15.406;2022-08-04T06:07:56;97199.31;;;19.33;78.43
39843;BME280;25514;46.764;15.406;2022-08-04T06:10:23;97192.31;;;19.37;78.55
39843;BME280;25514;46.764;15.406;2022-08-04T06:13:00;97192.44;;;19.43;78.50
39843;BME280;25514;46.764;15.406;2022-08-04T06:15:28;97184.66;;;19.47;78.13
39843;BME280;25514;46.764;15.406;2022-08-04T06:18:02;97188.56;;;19.55;77.79
39843;BME280;25514;46.764;15.406;2022-08-04T06:20:33;97197.56;;;19.65;77.05
39843;BME280;25514;46.764;15.406;2022-08-04T06:23:03;97188.19;;;19.78;75.82
39843;BME280;25514;46.764;15.406;2022-08-04T06:25:33;97187.25;;;20.01;76.80
39843;BME280;25514;46.764;15.406;2022-08-04T06:28:04;97186.09;;;20.28;75.59
39843;BME280;25514;46.764;15.406;2022-08-04T06:30:31;97188.19;;;20.54;75.15
39843;BME280;25514;46.764;15.406;2022-08-04T06:32:58;97190.66;;;20.93;75.22
39843;BME280;25514;46.764;15.406;2022-08-04T06:35:27;97186.31;;;21.45;75.58
39843;BME280;25514;46.764;15.406;2022-08-04T06:37:55;97189.50;;;22.01;73.81
39843;BME280;25514;46.764;15.406;2022-08-04T06:40:22;97186.75;;;22.50;71.36
39843;BME280;25514;46.764;15.406;2022-08-04T06:42:49;97180.03;;;22.96;69.89
39843;BME280;25514;46.764;15.406;2022-08-04T06:45:15;97185.19;;;23.43;68.06
39843;BME280;25514;46.764;15.406;2022-08-04T06:47:43;97185.69;;;23.87;66.61
39843;BME280;25514;46.764;15.406;2022-08-04T06:50:10;97185.50;;;24.49;66.08
39843;BME280;25514;46.764;15.406;2022-08-04T06:52:37;97179.16;;;25.02;63.49
39843;BME280;25514;46.764;15.406;2022-08-04T06:55:03;97185.03;;;25.40;61.37
39843;BME280;25514;46.764;15.406;2022-08-04T06:57:30;97185.06;;;25.64;58.80
39843;BME280;25514;46.764;15.406;2022-08-04T07:00:00;97185.00;;;25.76;57.19
39843;BME280;25514;46.764;15.406;2022-08-04T07:02:29;97183.56;;;25.88;59.03
39843;BME280;25514;46.764;15.406;2022-08-04T07:04:55;97178.88;;;26.27;57.98
39843;BME280;25514;46.764;15.406;2022-08-04T07:07:24;97182.28;;;26.63;57.00
39843;BME280;25514;46.764;15.406;2022-08-04T07:09:51;97176.91;;;27.03;56.24
39843;BME280;25514;46.764;15.406;2022-08-04T07:12:17;97186.97;;;27.31;54.97
39843;BME280;25514;46.764;15.406;2022-08-04T07:14:47;97178.31;;;27.61;55.57
39843;BME280;25514;46.764;15.406;2022-08-04T07:17:13;97183.31;;;27.82;55.24
39843;BME280;25514;46.764;15.406;2022-08-04T07:19:40;97180.25;;;27.99;53.98
39843;BME280;25514;46.764;15.406;2022-08-04T07:22:06;97181.31;;;28.09;53.97
39843;BME280;25514;46.764;15.406;2022-08-04T07:24:35;97181.09;;;28.34;53.56
39843;BME280;25514;46.764;15.406;2022-08-04T07:27:02;97186.28;;;28.57;52.63
39843;BME280;25514;46.764;15.406;2022-08-04T07:29:28;97186.50;;;28.72;52.21
39843;BME280;25514;46.764;15.406;2022-08-04T07:31:56;97195.56;;;28.78;50.90
39843;BME280;25514;46.764;15.406;2022-08-04T07:34:23;97185.63;;;28.64;48.49
39843;BME280;25514;46.764;15.406;2022-08-04T07:36:52;97187.03;;;28.71;49.07
39843;BME280;25514;46.764;15.406;2022-08-04T07:39:17;97185.09;;;29.00;50.49
39843;BME280;25514;46.764;15.406;2022-08-04T07:41:44;97185.50;;;29.17;47.16
39843;BME280;25514;46.764;15.406;2022-08-04T07:44:13;97175.72;;;28.97;46.92
39843;BME280;25514;46.764;15.406;2022-08-04T07:46:39;97183.97;;;29.16;47.78
39843;BME280;25514;46.764;15.406;2022-08-04T07:49:05;97178.81;;;29.20;48.55
39843;BME280;25514;46.764;15.406;2022-08-04T07:51:31;97182.16;;;29.40;48.06
39843;BME280;25514;46.764;15.406;2022-08-04T07:53:57;97178.59;;;29.61;48.40
39843;BME280;25514;46.764;15.406;2022-08-04T07:56:25;97183.59;;;29.54;45.45
39843;BME280;25514;46.764;15.406;2022-08-04T07:58:51;97170.38;;;29.63;45.06
39843;BME280;25514;46.764;15.406;2022-08-04T08:01:17;97170.56;;;30.15;45.61
39843;BME280;25514;46.764;15.406;2022-08-04T08:03:44;97170.47;;;30.64;46.19
39843;BME280;25514;46.764;15.406;2022-08-04T08:06:10;97175.34;;;30.64;43.43
39843;BME280;25514;46.764;15.406;2022-08-04T08:08:38;97172.41;;;30.85;44.08
39843;BME280;25514;46.764;15.406;2022-08-04T08:11:07;97172.81;;;30.89;42.83
39843;BME280;25514;46.764;15.406;2022-08-04T08:13:34;97163.84;;;30.98;43.08
39843;BME280;25514;46.764;15.406;2022-08-04T08:16:01;97162.38;;;31.28;43.67
39843;BME280;25514;46.764;15.406;2022-08-04T08:18:27;97156.75;;;31.44;44.21
39843;BME280;25514;46.764;15.406;2022-08-04T08:20:53;97159.22;;;31.63;42.34
39843;BME280;25514;46.764;15.406;2022-08-04T08:23:19;97161.66;;;31.89;41.43
39843;BME280;25514;46.764;15.406;2022-08-04T08:25:45;97154.09;;;32.07;41.18
39843;BME280;25514;46.764;15.406;2022-08-04T08:28:11;97158.59;;;32.26;40.03
39843;BME280;25514;46.764;15.406;2022-08-04T08:30:37;97154.09;;;32.23;38.29
39843;BME280;25514;46.764;15.406;2022-08-04T08:33:08;97157.78;;;32.49;38.84
39843;BME280;25514;46.764;15.406;2022-08-04T08:35:47;97152.09;;;32.64;39.81
39843;BME280;25514;46.764;15.406;2022-08-04T08:38:17;97156.56;;;32.75;39.32
39843;BME280;25514;46.764;15.406;2022-08-04T08:43:43;97155.88;;;33.00;39.46
39843;BME280;25514;46.764;15.406;2022-08-04T08:46:19;97158.75;;;32.92;38.26
39843;BME280;25514;46.764;15.406;2022-08-04T08:51:32;97162.78;;;32.73;36.44
39843;BME280;25514;46.764;15.406;2022-08-04T08:54:36;97165.56;;;32.89;37.44
39843;BME280;25514;46.764;15.406;2022-08-04T09:00:02;97163.16;;;33.10;35.21
39843;BME280;25514;46.764;15.406;2022-08-04T09:02:47;97157.59;;;32.95;33.47
39843;BME280;25514;46.764;15.406;2022-08-04T09:05:27;97159.09;;;32.96;34.60
39843;BME280;25514;46.764;15.406;2022-08-04T09:10:46;97161.81;;;32.78;35.09
39843;BME280;25514;46.764;15.406;2022-08-04T09:13:22;97158.25;;;33.11;34.61
39843;BME280;25514;46.764;15.406;2022-08-04T09:16:16;97162.38;;;33.18;33.70
39843;BME280;25514;46.764;15.406;2022-08-04T09:19:23;97160.88;;;33.17;33.72
39843;BME280;25514;46.764;15.406;2022-08-04T09:21:51;97158.47;;;33.38;34.12
39843;BME280;25514;46.764;15.406;2022-08-04T09:24:53;97150.94;;;33.33;32.53
39843;BME280;25514;46.764;15.406;2022-08-04T09:30:06;97151.41;;;33.72;33.98
39843;BME280;25514;46.764;15.406;2022-08-04T09:35:27;97150.97;;;33.83;33.02
39843;BME280;25514;46.764;15.406;2022-08-04T09:41:16;97141.00;;;33.49;33.17
39843;BME280;25514;46.764;15.406;2022-08-04T09:46:20;97138.47;;;34.21;34.11
39843;BME280;25514;46.764;15.406;2022-08-04T09:49:01;97138.84;;;34.26;32.52
39843;BME280;25514;46.764;15.406;2022-08-04T09:54:37;97136.63;;;34.51;33.44
39843;BME280;25514;46.764;15.406;2022-08-04T09:57:31;97129.78;;;34.54;32.85
39843;BME280;25514;46.764;15.406;2022-08-04T10:00:11;97125.97;;;34.25;32.69
39843;BME280;25514;46.764;15.406;2022-08-04T10:02:51;97123.03;;;34.15;32.66
39843;BME280;25514;46.764;15.406;2022-08-04T10:05:48;97123.66;;;34.31;34.39
39843;BME280;25514;46.764;15.406;2022-08-04T10:08:27;97122.25;;;34.67;32.92
39843;BME280;25514;46.764;15.406;2022-08-04T10:11:04;97121.44;;;34.21;29.70
39843;BME280;25514;46.764;15.406;2022-08-04T10:13:59;97115.72;;;34.74;31.30
39843;BME280;25514;46.764;15.406;2022-08-04T10:19:26;97117.72;;;35.08;30.00
39843;BME280;25514;46.764;15.406;2022-08-04T10:25:09;97122.97;;;35.12;31.06
39843;BME280;25514;46.764;15.406;2022-08-04T10:27:43;97119.25;;;34.82;32.26
39843;BME280;25514;46.764;15.406;2022-08-04T10:30:11;97107.34;;;34.93;32.18
39843;BME280;25514;46.764;15.406;2022-08-04T10:35:32;97103.78;;;35.30;32.83
39843;BME280;25514;46.764;15.406;2022-08-04T10:38:30;97106.47;;;35.01;31.78
39843;BME280;25514;46.764;15.406;2022-08-04T10:41:23;97103.50;;;34.99;32.11
39843;BME280;25514;46.764;15.406;2022-08-04T10:44:04;97097.28;;;35.20;32.45
39843;BME280;25514;46.764;15.406;2022-08-04T10:46:44;97098.22;;;35.22;31.37
39843;BME280;25514;46.764;15.406;2022-08-04T10:49:21;97092.72;;;35.34;32.68
39843;BME280;25514;46.764;15.406;2022-08-04T10:52:17;97101.59;;;35.48;31.91
39843;BME280;25514;46.764;15.406;2022-08-04T10:54:50;97089.94;;;35.44;32.18
39843;BME280;25514;46.764;15.406;2022-08-04T10:57:36;97099.00;;;34.96;31.74
39843;BME280;25514;46.764;15.406;2022-08-04T11:00:07;97101.53;;;35.28;32.29
39843;BME280;25514;46.764;15.406;2022-08-04T11:05:10;97086.91;;;35.42;31.35
39843;BME280;25514;46.764;15.406;2022-08-04T11:07:40;97082.06;;;35.25;30.45
39843;BME280;25514;46.764;15.406;2022-08-04T11:10:08;97078.13;;;35.57;32.51
39843;BME280;25514;46.764;15.406;2022-08-04T11:12:34;97073.81;;;35.56;30.72
39843;BME280;25514;46.764;15.406;2022-08-04T11:15:20;97077.66;;;35.51;30.11
39843;BME280;25514;46.764;15.406;2022-08-04T11:17:50;97068.41;;;35.60;31.54
39843;BME280;25514;46.764;15.406;2022-08-04T11:20:22;97064.03;;;35.40;30.61
39843;BME280;25514;46.764;15.406;2022-08-04T11:25:31;97050.47;;;35.68;30.77
39843;BME280;25514;46.764;15.406;2022-08-04T11:28:32;97059.22;;;35.89;30.84
39843;BME280;25514;46.764;15.406;2022-08-04T11:31:02;97051.56;;;35.92;30.40
39843;BME280;25514;46.764;15.406;2022-08-04T11:36:09;97042.44;;;35.93;29.65
39843;BME280;25514;46.764;15.406;2022-08-04T11:39:08;97042.28;;;36.11;30.64
39843;BME280;25514;46.764;15.406;2022-08-04T11:41:55;97046.16;;;36.06;28.98
39843;BME280;25514;46.764;15.406;2022-08-04T11:44:46;97044.09;;;36.06;30.58
39843;BME280;25514;46.764;15.406;2022-08-04T11:50:38;97044.25;;;36.28;29.75
39843;BME280;25514;46.764;15.406;2022-08-04T11:53:06;97040.81;;;36.29;30.23
39843;BME280;25514;46.764;15.406;2022-08-04T11:55:33;97040.78;;;36.39;28.90
39843;BME280;25514;46.764;15.406;2022-08-04T11:58:00;97038.81;;;36.22;28.95
39843;BME280;25514;46.764;15.406;2022-08-04T12:00:28;97038.84;;;36.12;28.94
39843;BME280;25514;46.764;15.406;2022-08-04T12:03:18;97037.81;;;36.08;28.09
39843;BME280;25514;46.764;15.406;2022-08-04T12:06:08;97026.56;;;36.29;29.49
39843;BME280;25514;46.764;15.406;2022-08-04T12:08:48;97019.91;;;36.56;30.13
39843;BME280;25514;46.764;15.406;2022-08-04T12:11:48;97020.47;;;36.64;27.96
39843;BME280;25514;46.764;15.406;2022-08-04T12:17:01;97019.63;;;36.52;28.71
39843;BME280;25514;46.764;15.406;2022-08-04T12:19:53;97022.47;;;36.52;29.37
39843;BME280;25514;46.764;15.406;2022-08-04T12:22:28;97031.41;;;36.68;29.08
39843;BME280;25514;46.764;15.406;2022-08-04T12:25:04;97027.09;;;36.57;27.53
39843;BME280;25514;46.764;15.406;2022-08-04T12:27:52;97021.81;;;36.73;28.81
39843;BME280;25514;46.764;15.406;2022-08-04T12:30:18;97022.72;;;36.66;27.69
39843;BME280;25514;46.764;15.406;2022-08-04T12:32:55;97025.44;;;36.64;28.03
39843;BME280;25514;46.764;15.406;2022-08-04T12:35:33;97019.97;;;36.37;28.13
39843;BME280;25514;46.764;15.406;2022-08-04T12:40:43;97016.41;;;36.77;28.43
39843;BME280;25514;46.764;15.406;2022-08-04T12:43:17;97020.53;;;36.96;28.68
39843;BME280;25514;46.764;15.406;2022-08-04T12:46:17;97018.41;;;36.55;26.17
39843;BME280;25514;46.764;15.406;2022-08-04T12:48:44;97006.44;;;36.57;27.70
39843;BME280;25514;46.764;15.406;2022-08-04T12:51:11;97010.41;;;36.83;28.67
39843;BME280;25514;46.764;15.406;2022-08-04T12:53:42;97008.34;;;37.05;28.03
39843;BME280;25514;46.764;15.406;2022-08-04T12:56:10;97006.94;;;36.84;28.38
39843;BME280;25514;46.764;15.406;2022-08-04T12:58:37;97001.94;;;36.95;29.54
39843;BME280;25514;46.764;15.406;2022-08-04T13:01:06;97000.34;;;36.82;28.99
39843;BME280;25514;46.764;15.406;2022-08-04T13:03:44;96997.16;;;36.56;27.49
39843;BME280;25514;46.764;15.406;2022-08-04T13:06:13;96990.50;;;36.63;29.12
39843;BME280;25514;46.764;15.406;2022-08-04T13:08:41;96993.13;;;36.40;28.13
39843;BME280;25514;46.764;15.406;2022-08-04T13:11:09;96978.75;;;36.47;28.24
39843;BME280;25514;46.764;15.406;2022-08-04T13:13:37;96981.28;;;36.53;28.51
39843;BME280;25514;46.764;15.406;2022-08-04T13:16:06;96976.75;;;36.60;28.16
39843;BME280;25514;46.764;15.406;2022-08-04T13:18:35;96980.19;;;36.58;26.96
39843;BME280;25514;46.764;15.406;2022-08-04T13:21:10;96986.53;;;36.37;27.59
39843;BME280;25514;46.764;15.406;2022-08-04T13:23:37;96983.75;;;36.08;28.32
39843;BME280;25514;46.764;15.406;2022-08-04T13:26:04;96974.94;;;36.04;28.91
39843;BME280;25514;46.764;15.406;2022-08-04T13:28:31;96975.97;;;35.89;27.34
39843;BME280;25514;46.764;15.406;2022-08-04T13:31:05;96975.34;;;36.20;28.75
39843;BME280;25514;46.764;15.406;2022-08-04T13:33:33;96970.97;;;36.38;27.89
39843;BME280;25514;46.764;15.406;2022-08-04T13:35:59;96967.97;;;36.46;27.77
39843;BME280;25514;46.764;15.406;2022-08-04T13:38:27;96968.81;;;36.58;28.50
39843;BME280;25514;46.764;15.406;2022-08-04T13:40:55;96966.81;;;36.70;26.97
39843;BME280;25514;46.764;15.406;2022-08-04T13:43:27;96963.50;;;36.84;28.21
39843;BME280;25514;46.764;15.406;2022-08-04T13:45:59;96959.78;;;36.72;26.99
39843;BME280;25514;46.764;15.406;2022-08-04T13:48:29;96966.47;;;36.45;26.77
39843;BME280;25514;46.764;15.406;2022-08-04T13:50:57;96956.34;;;36.63;27.73
39843;BME280;25514;46.764;15.406;2022-08-04T13:53:30;96956.94;;;36.72;27.84
39843;BME280;25514;46.764;15.406;2022-08-04T13:55:56;96949.59;;;36.68;27.68
39843;BME280;25514;46.764;15.406;2022-08-04T13:58:23;96951.69;;;36.68;27.55
39843;BME280;25514;46.764;15.406;2022-08-04T14:01:14;96959.00;;;36.40;27.70
39843;BME280;25514;46.764;15.406;2022-08-04T14:04:02;96951.44;;;36.54;27.23
39843;BME280;25514;46.764;15.406;2022-08-04T14:06:30;96951.59;;;36.56;27.31
39843;BME280;25514;46.764;15.406;2022-08-04T14:09:02;96951.41;;;36.64;27.40
39843;BME280;25514;46.764;15.406;2022-08-04T14:14:00;96947.94;;;36.75;27.67
39843;BME280;25514;46.764;15.406;2022-08-04T14:16:26;96951.84;;;36.29;27.41
39843;BME280;25514;46.764;15.406;2022-08-04T14:18:59;96949.28;;;36.23;28.05
39843;BME280;25514;46.764;15.406;2022-08-04T14:21:26;96951.41;;;36.32;27.37
39843;BME280;25514;46.764;15.406;2022-08-04T14:23:53;96954.03;;;36.50;26.92
39843;BME280;25514;46.764;15.406;2022-08-04T14:26:21;96946.94;;;36.61;28.14
39843;BME280;25514;46.764;15.406;2022-08-04T14:28:47;96940.25;;;36.46;27.00
39843;BME280;25514;46.764;15.406;2022-08-04T14:31:16;96940.63;;;36.31;26.98
39843;BME280;25514;46.764;15.406;2022-08-04T14:33:42;96940.19;;;36.05;27.71
39843;BME280;25514;46.764;15.406;2022-08-04T14:36:09;96939.91;;;35.91;27.52
39843;BME280;25514;46.764;15.406;2022-08-04T14:38:53;96931.28;;;35.79;27.39
39843;BME280;25514;46.764;15.406;2022-08-04T14:41:25;96940.50;;;35.99;27.93
39843;BME280;25514;46.764;15.406;2022-08-04T14:46:16;96933.94;;;35.87;28.12
39843;BME280;25514;46.764;15.406;2022-08-04T14:49:06;96933.66;;;35.73;27.65
39843;BME280;25514;46.764;15.406;2022-08-04T14:54:01;96934.38;;;35.93;28.66
39843;BME280;25514;46.764;15.406;2022-08-04T14:56:27;96924.47;;;36.14;29.32
39843;BME280;25514;46.764;15.406;2022-08-04T14:59:06;96927.75;;;36.20;28.40
39843;BME280;25514;46.764;15.406;2022-08-04T15:01:33;96922.66;;;36.09;28.63
39843;BME280;25514;46.764;15.406;2022-08-04T15:04:00;96926.00;;;35.95;28.56
39843;BME280;25514;46.764;15.406;2022-08-04T15:06:28;96930.06;;;35.92;28.06
39843;BME280;25514;46.764;15.406;2022-08-04T15:08:56;96923.47;;;35.90;28.54
39843;BME280;25514;46.764;15.406;2022-08-04T15:11:23;96923.91;;;35.67;28.09
39843;BME280;25514;46.764;15.406;2022-08-04T15:13:49;96924.66;;;35.48;28.26
39843;BME280;25514;46.764;15.406;2022-08-04T15:16:15;96926.31;;;35.41;28.02
39843;BME280;25514;46.764;15.406;2022-08-04T15:18:41;96925.25;;;35.46;28.18
39843;BME280;25514;46.764;15.406;2022-08-04T15:21:07;96926.31;;;35.41;27.79
39843;BME280;25514;46.764;15.406;2022-08-04T15:23:34;96924.66;;;35.38;28.23
39843;BME280;25514;46.764;15.406;2022-08-04T15:26:01;96919.88;;;35.40;28.68
39843;BME280;25514;46.764;15.406;2022-08-04T15:28:29;96919.13;;;35.40;28.45
39843;BME280;25514;46.764;15.406;2022-08-04T15:30:57;96922.56;;;35.38;27.36
39843;BME280;25514;46.764;15.406;2022-08-04T15:33:26;96919.13;;;35.40;28.33
39843;BME280;25514;46.764;15.406;2022-08-04T15:36:08;96918.53;;;35.51;28.60
39843;BME280;25514;46.764;15.406;2022-08-04T15:38:38;96926.44;;;35.23;28.36
39843;BME280;25514;46.764;15.406;2022-08-04T15:41:08;96921.59;;;34.97;28.17
39843;BME280;25514;46.764;15.406;2022-08-04T15:43:56;96920.91;;;34.69;28.79
39843;BME280;25514;46.764;15.406;2022-08-04T15:49:23;96917.69;;;34.45;29.45
39843;BME280;25514;46.764;15.406;2022-08-04T15:52:12;96916.19;;;34.44;29.51
39843;BME280;25514;46.764;15.406;2022-08-04T15:54:40;96913.31;;;34.34;28.99
39843;BME280;25514;46.764;15.406;2022-08-04T15:57:07;96912.88;;;34.38;29.39
39843;BME280;25514;46.764;15.406;2022-08-04T15:59:55;96910.78;;;34.11;30.05
39843;BME280;25514;46.764;15.406;2022-08-04T16:13:07;96905.97;;;34.04;29.64
39843;BME280;25514;46.764;15.406;2022-08-04T16:15:53;96904.56;;;33.95;30.16
39843;BME280;25514;46.764;15.406;2022-08-04T16:20:56;96895.66;;;33.99;29.60
39843;BME280;25514;46.764;15.406;2022-08-04T16:26:13;96906.31;;;33.91;30.62
39843;BME280;25514;46.764;15.406;2022-08-04T16:28:41;96896.50;;;33.92;30.22
39843;BME280;25514;46.764;15.406;2022-08-04T16:31:09;96899.00;;;33.70;30.58
39843;BME280;25514;46.764;15.406;2022-08-04T16:33:36;96897.47;;;33.42;30.56
39843;BME280;25514;46.764;15.406;2022-08-04T16:36:05;96903.38;;;33.36;31.16
39843;BME280;25514;46.764;15.406;2022-08-04T16:39:12;96895.53;;;33.09;31.20
39843;BME280;25514;46.764;15.406;2022-08-04T16:41:39;96897.63;;;33.09;31.46